Time;durP1;ratioP1;P1;durP2;ratioP2;P2;SDS_P1;SDS_P2;PMS_P1;PMS_P2;Temp;Humidity;BMP_temperature;BMP_pressure;BME280_temperature;BME280_humidity;BME280_pressure;Samples;Min_cycle;Max_cycle;Signal;HPM_P1;HPM_P2
2022/03/11 05:00:13;;;;;;;;;;;3.10;86.80;;;;;;6153096;23;20012;31
2022/03/11 05:02:40;;;;;;;;;;;2.90;86.40;;;;;;4977386;28;20019;-69
2022/03/11 05:05:08;;;;;;;;;;;2.80;92.20;;;;;;4976365;28;20497;-69
2022/03/11 05:07:35;;;;;;;;;;;2.70;92.00;;;;;;4975710;28;20421;-68
2022/03/11 05:10:02;;;;;;;;;;;2.70;91.90;;;;;;4976085;28;20018;-68
2022/03/11 05:12:29;;;;;;;;;;;2.70;92.20;;;;;;4976141;28;20027;-67
2022/03/11 05:14:55;;;;;;;;;;;2.60;91.40;;;;;;4975458;28;20504;-69
2022/03/11 05:17:23;;;;;;;;;;;2.60;91.50;;;;;;4976295;28;20011;-68
2022/03/11 05:19:50;;;;;;;;;;;2.60;91.20;;;;;;4976240;28;20015;-69
2022/03/11 05:22:17;;;;;;;;;;;2.60;90.80;;;;;;4975947;28;20027;-69
2022/03/11 05:24:43;;;;;;;;;;;2.60;90.60;;;;;;4975954;28;20022;-68
2022/03/11 05:27:10;;;;;;;;;;;2.50;74.90;;;;;;4976048;28;20015;-68
2022/03/11 05:29:36;;;;;;;;;;;2.50;74.60;;;;;;4975966;28;20074;-69
2022/03/11 05:32:03;;;;;;;;;;;2.50;66.40;;;;;;4975959;28;20090;-68
2022/03/11 05:34:31;;;;;;;;;;;2.50;69.30;;;;;;4975842;28;20019;-69
2022/03/11 05:36:58;;;;;;;;;;;2.50;68.30;;;;;;4975877;28;20065;-68
2022/03/11 05:39:25;;;;;;;;;;;2.50;68.10;;;;;;4975579;28;20011;-69
2022/03/11 05:41:51;;;;;;;;;;;2.50;68.30;;;;;;4976027;28;20030;-68
2022/03/11 05:44:18;;;;;;;;;;;2.50;67.60;;;;;;4976180;28;20014;-68
2022/03/11 05:46:45;;;;;;;;;;;2.40;67.30;;;;;;4975841;28;20018;-69
2022/03/11 05:49:11;;;;;;;;;;;2.40;66.80;;;;;;4975602;28;20061;-68
2022/03/11 05:51:39;;;;;;;;;;;2.30;66.50;;;;;;4975572;28;20034;-68
2022/03/11 05:54:06;;;;;;;;;;;2.30;66.50;;;;;;4975923;28;20062;-69
2022/03/11 05:56:34;;;;;;;;;;;2.20;66.60;;;;;;4975717;28;20018;-69
2022/03/11 05:59:00;;;;;;;;;;;2.20;66.30;;;;;;4975644;28;20525;-68
2022/03/11 06:01:27;;;;;;;;;;;2.10;65.60;;;;;;4975323;28;20038;-68
2022/03/11 06:03:54;;;;;;;;;;;2.10;65.90;;;;;;4976170;28;20011;-67
2022/03/11 06:06:20;;;;;;;;;;;2.10;65.90;;;;;;4977643;28;20027;-68
2022/03/11 06:08:48;;;;;;;;;;;2.10;65.70;;;;;;4975924;28;20011;-69
2022/03/11 06:11:15;;;;;;;;;;;2.10;65.30;;;;;;4975450;28;20034;-69
2022/03/11 06:13:41;;;;;;;;;;;2.20;65.20;;;;;;4975485;28;20018;-67
2022/03/11 06:16:08;;;;;;;;;;;2.20;64.90;;;;;;4975755;28;20017;-68
2022/03/11 06:18:34;;;;;;;;;;;2.30;64.50;;;;;;4975260;28;20486;-68
2022/03/11 06:21:01;;;;;;;;;;;2.30;64.30;;;;;;4975322;28;20034;-68
2022/03/11 06:23:29;;;;;;;;;;;2.40;63.80;;;;;;4976701;28;20023;-68
2022/03/11 06:25:57;;;;;;;;;;;2.40;63.60;;;;;;4976741;28;20029;-68
2022/03/11 06:28:24;;;;;;;;;;;2.40;63.00;;;;;;4979691;28;20011;-68
2022/03/11 06:30:51;;;;;;;;;;;2.40;62.80;;;;;;4979383;28;20102;-68
2022/03/11 06:33:17;;;;;;;;;;;2.40;62.50;;;;;;4979305;28;20010;-67
2022/03/11 06:35:44;;;;;;;;;;;2.40;62.40;;;;;;4979418;28;20011;-68
2022/03/11 06:38:10;;;;;;;;;;;2.40;62.30;;;;;;4979336;28;20425;-67
2022/03/11 06:40:37;;;;;;;;;;;2.40;61.90;;;;;;4979078;28;20526;-69
2022/03/11 06:43:05;;;;;;;;;;;2.50;62.00;;;;;;4978966;28;20359;-69
2022/03/11 06:45:31;;;;;;;;;;;2.50;61.60;;;;;;4979097;28;20029;-69
2022/03/11 06:47:58;;;;;;;;;;;2.60;61.50;;;;;;4979231;28;20338;-69
2022/03/11 06:50:25;;;;;;;;;;;2.80;60.80;;;;;;4978856;28;20065;-68
2022/03/11 06:52:51;;;;;;;;;;;3.50;59.30;;;;;;4979186;28;20038;-70
2022/03/11 06:55:18;;;;;;;;;;;4.20;57.70;;;;;;4979068;28;20011;-69
2022/03/11 06:57:45;;;;;;;;;;;4.80;56.60;;;;;;4978464;28;20006;-69
2022/03/11 07:00:14;;;;;;;;;;;5.50;54.50;;;;;;4978853;28;20058;-69
2022/03/11 07:02:41;;;;;;;;;;;5.90;53.10;;;;;;4978309;28;20102;-70
2022/03/11 07:05:08;;;;;;;;;;;6.30;52.10;;;;;;4978537;28;20027;-71
2022/03/11 07:07:35;;;;;;;;;;;6.90;51.30;;;;;;4978679;28;20018;-69
2022/03/11 07:10:01;;;;;;;;;;;7.40;50.20;;;;;;4978712;28;20058;-70
2022/03/11 07:12:29;;;;;;;;;;;7.90;49.80;;;;;;4978629;28;20027;-70
2022/03/11 07:14:55;;;;;;;;;;;8.50;48.60;;;;;;4978835;28;20015;-69
2022/03/11 07:17:23;;;;;;;;;;;8.70;47.10;;;;;;4978523;28;20011;-69
2022/03/11 07:19:50;;;;;;;;;;;8.80;50.50;;;;;;4979093;28;20015;-69
2022/03/11 07:22:17;;;;;;;;;;;9.00;46.90;;;;;;4978364;28;20393;-70
2022/03/11 07:24:44;;;;;;;;;;;8.90;46.20;;;;;;4978399;28;20011;-71
2022/03/11 07:27:11;;;;;;;;;;;8.90;45.70;;;;;;4978503;28;20011;-70
2022/03/11 07:29:37;;;;;;;;;;;9.20;45.90;;;;;;4978387;28;20344;-70
2022/03/11 07:32:05;;;;;;;;;;;9.40;45.10;;;;;;4978505;28;20027;-70
2022/03/11 07:34:32;;;;;;;;;;;9.70;44.80;;;;;;4978152;28;20017;-70
2022/03/11 07:36:59;;;;;;;;;;;9.70;45.40;;;;;;4977998;28;20462;-71
2022/03/11 07:39:25;;;;;;;;;;;10.00;43.50;;;;;;4978763;28;20058;-69
2022/03/11 07:41:52;;;;;;;;;;;10.40;42.70;;;;;;4978780;28;20026;-70
2022/03/11 07:44:20;;;;;;;;;;;10.60;42.80;;;;;;4978611;28;20422;-71
2022/03/11 07:46:46;;;;;;;;;;;10.90;42.10;;;;;;4978900;28;20026;-70
2022/03/11 07:49:14;;;;;;;;;;;10.90;41.30;;;;;;4978605;28;20018;-70
2022/03/11 07:51:42;;;;;;;;;;;11.10;41.30;;;;;;4978429;28;20101;-70
2022/03/11 07:54:08;;;;;;;;;;;11.40;41.00;;;;;;4979251;28;20034;-71
2022/03/11 07:56:35;;;;;;;;;;;11.70;40.80;;;;;;4978636;28;20034;-69
2022/03/11 07:59:02;;;;;;;;;;;11.60;40.50;;;;;;4978194;28;20480;-69
2022/03/11 08:01:28;;;;;;;;;;;12.10;40.30;;;;;;4978066;28;20090;-69
2022/03/11 08:03:55;;;;;;;;;;;12.30;39.30;;;;;;4978295;28;20018;-69
2022/03/11 08:06:21;;;;;;;;;;;12.40;39.20;;;;;;4977957;28;20029;-69
2022/03/11 08:08:50;;;;;;;;;;;12.80;39.20;;;;;;4978038;28;20015;-69
2022/03/11 08:11:16;;;;;;;;;;;13.20;38.70;;;;;;4978359;28;20371;-69
2022/03/11 08:13:43;;;;;;;;;;;13.60;38.00;;;;;;4978077;28;20011;-67
2022/03/11 08:16:10;;;;;;;;;;;13.70;38.10;;;;;;4977788;28;20027;-68
2022/03/11 08:18:36;;;;;;;;;;;14.10;37.80;;;;;;4977904;28;20059;-69
2022/03/11 08:21:03;;;;;;;;;;;14.40;37.20;;;;;;4978192;28;20026;-67
2022/03/11 08:23:30;;;;;;;;;;;14.40;41.30;;;;;;4978405;28;20011;-67
2022/03/11 08:25:58;;;;;;;;;;;14.90;39.90;;;;;;4977785;28;20030;-69
2022/03/11 08:28:25;;;;;;;;;;;15.30;38.10;;;;;;4986726;28;20034;-68
2022/03/11 08:30:52;;;;;;;;;;;15.20;36.40;;;;;;4988074;28;20033;-68
2022/03/11 08:33:22;;;;;;;;;;;15.20;36.70;;;;;;4988813;28;20014;-68
2022/03/11 08:35:48;;;;;;;;;;;15.60;36.50;;;;;;4987545;28;20010;-68
2022/03/11 08:38:15;;;;;;;;;;;15.80;35.90;;;;;;4985758;28;20035;-68
2022/03/11 08:40:42;;;;;;;;;;;16.30;37.00;;;;;;4977804;28;20027;-69
2022/03/11 08:43:10;;;;;;;;;;;16.40;34.70;;;;;;4978407;28;20018;-69
2022/03/11 08:45:37;;;;;;;;;;;16.70;35.60;;;;;;4979955;28;20062;-69
2022/03/11 08:48:03;;;;;;;;;;;16.90;34.90;;;;;;4979916;28;20011;-68
2022/03/11 08:50:30;;;;;;;;;;;16.80;35.00;;;;;;4976625;28;20014;-68
2022/03/11 08:52:57;;;;;;;;;;;17.20;34.50;;;;;;4976357;28;20007;-68
2022/03/11 08:55:23;;;;;;;;;;;17.60;34.40;;;;;;4976925;28;20010;-68
2022/03/11 08:57:51;;;;;;;;;;;17.80;35.20;;;;;;4978342;28;20042;-69
2022/03/11 09:00:20;;;;;;;;;;;18.10;35.00;;;;;;4979765;28;20489;-69
2022/03/11 09:02:46;;;;;;;;;;;18.20;33.10;;;;;;4976371;28;20413;-69
2022/03/11 09:05:15;;;;;;;;;;;18.50;33.80;;;;;;4976639;28;20018;-70
2022/03/11 09:07:41;;;;;;;;;;;18.90;33.10;;;;;;4976570;28;20355;-69
2022/03/11 09:10:10;;;;;;;;;;;19.20;34.10;;;;;;4976216;28;20415;-69
2022/03/11 09:12:36;;;;;;;;;;;19.10;32.60;;;;;;4977060;28;20078;-69
2022/03/11 09:15:03;;;;;;;;;;;19.50;32.70;;;;;;4976642;28;20011;-69
2022/03/11 09:17:33;;;;;;;;;;;19.90;32.10;;;;;;4976022;28;20466;-70
2022/03/11 09:20:03;;;;;;;;;;;19.40;32.20;;;;;;4976595;28;20011;-69
2022/03/11 09:22:29;;;;;;;;;;;19.20;31.90;;;;;;4976209;28;20034;-69
2022/03/11 09:24:56;;;;;;;;;;;18.80;32.70;;;;;;4976855;28;20010;-69
2022/03/11 09:27:23;;;;;;;;;;;18.40;32.90;;;;;;4976306;28;20034;-69
2022/03/11 09:29:50;;;;;;;;;;;18.70;33.20;;;;;;4976113;28;20066;-70
2022/03/11 09:32:16;;;;;;;;;;;19.20;33.50;;;;;;4975964;28;20026;-69
2022/03/11 09:34:44;;;;;;;;;;;19.60;32.30;;;;;;4976072;28;20015;-70
2022/03/11 09:37:11;;;;;;;;;;;19.50;31.70;;;;;;4975694;28;20081;-70
2022/03/11 09:39:38;;;;;;;;;;;19.60;32.20;;;;;;4976256;28;20031;-70
2022/03/11 09:42:05;;;;;;;;;;;19.90;32.30;;;;;;4976211;28;20027;-69
2022/03/11 09:44:32;;;;;;;;;;;20.20;32.10;;;;;;4976112;28;20070;-68
2022/03/11 09:46:59;;;;;;;;;;;20.30;32.00;;;;;;4975968;28;20497;-69
2022/03/11 09:49:26;;;;;;;;;;;19.70;32.10;;;;;;4976351;28;20011;-69
2022/03/11 09:51:53;;;;;;;;;;;20.00;32.60;;;;;;4976333;28;20031;-69
2022/03/11 09:54:20;;;;;;;;;;;20.40;32.80;;;;;;4976138;28;20010;-69
2022/03/11 09:56:46;;;;;;;;;;;20.70;32.40;;;;;;4976212;28;20010;-70
2022/03/11 09:59:13;;;;;;;;;;;21.00;32.30;;;;;;4976032;28;20007;-69
2022/03/11 10:01:40;;;;;;;;;;;21.20;31.40;;;;;;4975878;28;20109;-69
2022/03/11 10:04:07;;;;;;;;;;;21.80;32.10;;;;;;4976119;28;20059;-68
2022/03/11 10:06:37;;;;;;;;;;;21.80;31.40;;;;;;4976317;28;20029;-69
2022/03/11 10:09:05;;;;;;;;;;;21.50;31.90;;;;;;4976387;28;20011;-69
2022/03/11 10:11:32;;;;;;;;;;;20.80;34.90;;;;;;4976137;28;20030;-69
2022/03/11 10:14:04;;;;;;;;;;;22.00;33.20;;;;;;4975617;28;20489;-70
2022/03/11 10:16:31;;;;;;;;;;;22.70;31.80;;;;;;4976114;28;20011;-70
2022/03/11 10:18:58;;;;;;;;;;;22.50;31.10;;;;;;4975994;28;20355;-70
2022/03/11 10:21:29;;;;;;;;;;;22.60;32.20;;;;;;4975878;28;20027;-69
2022/03/11 10:23:56;;;;;;;;;;;22.80;31.20;;;;;;4975568;28;20069;-69
2022/03/11 10:26:34;;;;;;;;;;;23.10;31.90;;;;;;4975500;28;20030;-70
2022/03/11 10:29:01;;;;;;;;;;;23.10;31.90;;;;;;4975783;28;20409;-70
2022/03/11 10:31:31;;;;;;;;;;;22.70;31.30;;;;;;4976111;28;20031;-70
2022/03/11 10:34:22;;;;;;;;;;;22.40;32.30;;;;;;4975925;28;20470;-70
2022/03/11 10:36:50;;;;;;;;;;;22.40;31.70;;;;;;4965774;28;20370;-70
2022/03/11 10:39:17;;;;;;;;;;;22.90;32.50;;;;;;4976906;28;20015;-70
2022/03/11 10:41:45;;;;;;;;;;;23.30;31.50;;;;;;4977325;28;20027;-71
2022/03/11 10:44:12;;;;;;;;;;;23.80;30.40;;;;;;4975657;28;20046;-70
2022/03/11 10:46:39;;;;;;;;;;;23.50;31.60;;;;;;4975624;28;20029;-70
2022/03/11 10:49:05;;;;;;;;;;;22.80;32.10;;;;;;4975329;28;20011;-70
2022/03/11 10:51:35;;;;;;;;;;;23.10;31.40;;;;;;4975337;28;20125;-70
2022/03/11 10:54:04;;;;;;;;;;;23.30;32.40;;;;;;4975412;28;20015;-70
2022/03/11 10:56:34;;;;;;;;;;;23.20;32.20;;;;;;4975054;28;20015;-70
2022/03/11 10:59:05;;;;;;;;;;;23.10;33.00;;;;;;4975032;28;20506;-70
2022/03/11 11:01:36;;;;;;;;;;;23.00;31.20;;;;;;4975043;28;20505;-70
2022/03/11 11:04:02;;;;;;;;;;;23.20;31.40;;;;;;4975268;28;20047;-70
2022/03/11 11:06:30;;;;;;;;;;;22.40;31.40;;;;;;4975505;28;20023;-70
2022/03/11 11:08:56;;;;;;;;;;;22.30;34.50;;;;;;4977411;28;20466;-70
2022/03/11 11:11:23;;;;;;;;;;;22.20;32.90;;;;;;4979786;28;20027;-70
2022/03/11 11:13:50;;;;;;;;;;;22.00;32.20;;;;;;4978826;28;20011;-70
2022/03/11 11:16:19;;;;;;;;;;;21.10;34.10;;;;;;4978596;28;20382;-70
2022/03/11 11:18:47;;;;;;;;;;;20.30;32.60;;;;;;4979140;28;20057;-70
2022/03/11 11:21:18;;;;;;;;;;;19.70;35.00;;;;;;4978373;28;20050;-70
2022/03/11 11:23:45;;;;;;;;;;;18.60;36.10;;;;;;4978711;28;20007;-70
2022/03/11 11:26:12;;;;;;;;;;;18.00;36.60;;;;;;4978064;28;20062;-70
2022/03/11 11:28:39;;;;;;;;;;;17.70;37.70;;;;;;4978827;28;20011;-69
2022/03/11 11:31:06;;;;;;;;;;;17.50;39.10;;;;;;4978322;28;20379;-69
2022/03/11 11:33:34;;;;;;;;;;;17.30;38.80;;;;;;4978325;28;20010;-70
2022/03/11 11:36:02;;;;;;;;;;;17.00;38.90;;;;;;4979646;28;20015;-70
2022/03/11 11:38:29;;;;;;;;;;;17.00;38.00;;;;;;4979701;28;20011;-70
2022/03/11 11:40:56;;;;;;;;;;;17.10;38.40;;;;;;4979273;28;20027;-69
2022/03/11 11:43:27;;;;;;;;;;;17.10;37.40;;;;;;4979189;28;20382;-69
2022/03/11 11:45:55;;;;;;;;;;;16.30;38.80;;;;;;4982107;28;20014;-68
2022/03/11 11:48:42;;;;;;;;;;;16.20;40.70;;;;;;4982549;28;20417;-69
2022/03/11 11:51:11;;;;;;;;;;;16.50;39.30;;;;;;4981855;28;20038;-68
2022/03/11 11:53:40;;;;;;;;;;;16.80;41.10;;;;;;4980195;28;20022;-69
2022/03/11 11:56:22;;;;;;;;;;;16.90;39.90;;;;;;4979704;28;20117;-68
2022/03/11 11:58:49;;;;;;;;;;;16.90;40.20;;;;;;4979695;28;20422;-69
2022/03/11 12:01:36;;;;;;;;;;;17.20;38.90;;;;;;4980050;28;20038;-69
2022/03/11 12:04:21;;;;;;;;;;;17.30;38.50;;;;;;4978601;28;20054;-68
2022/03/11 12:06:56;;;;;;;;;;;16.90;39.30;;;;;;4979764;28;20023;-69
2022/03/11 12:09:41;;;;;;;;;;;17.20;39.50;;;;;;4979115;28;20011;-69
2022/03/11 12:12:09;;;;;;;;;;;17.00;40.30;;;;;;4979496;28;20034;-69
2022/03/11 12:15:08;;;;;;;;;;;16.90;40.40;;;;;;4979990;28;20018;-67
2022/03/11 12:17:38;;;;;;;;;;;16.90;42.40;;;;;;4980162;28;20014;-69
2022/03/11 12:20:24;;;;;;;;;;;16.80;41.50;;;;;;4980553;28;20010;-70
2022/03/11 12:22:53;;;;;;;;;;;16.80;39.30;;;;;;4980696;28;20010;-69
2022/03/11 12:25:21;;;;;;;;;;;16.90;41.50;;;;;;4979839;28;20043;-69
2022/03/11 12:27:56;;;;;;;;;;;17.20;39.20;;;;;;4979757;28;20023;-70
2022/03/11 12:30:22;;;;;;;;;;;16.90;38.70;;;;;;4979798;28;20017;-69
2022/03/11 12:32:50;;;;;;;;;;;17.00;38.50;;;;;;4979504;28;20017;-69
2022/03/11 12:35:18;;;;;;;;;;;17.00;39.40;;;;;;4978428;28;20007;-69
2022/03/11 12:37:45;;;;;;;;;;;17.20;38.60;;;;;;4980406;28;20057;-69
2022/03/11 12:40:13;;;;;;;;;;;17.10;40.70;;;;;;4977871;28;20015;-69
2022/03/11 12:42:40;;;;;;;;;;;17.20;38.90;;;;;;4978154;28;20022;-69
2022/03/11 12:45:07;;;;;;;;;;;16.80;40.10;;;;;;4977571;28;20011;-71
2022/03/11 12:47:37;;;;;;;;;;;17.00;40.10;;;;;;4977459;28;20038;-70
2022/03/11 12:50:05;;;;;;;;;;;16.80;41.30;;;;;;4977857;28;20018;-70
2022/03/11 12:52:36;;;;;;;;;;;16.90;41.30;;;;;;4977786;28;20027;-70
2022/03/11 12:55:03;;;;;;;;;;;16.80;40.00;;;;;;4979198;28;20018;-68
2022/03/11 12:57:31;;;;;;;;;;;17.20;39.60;;;;;;4977949;28;20011;-70
2022/03/11 12:59:57;;;;;;;;;;;17.00;40.20;;;;;;4977616;28;20496;-69
2022/03/11 13:02:24;;;;;;;;;;;16.50;40.30;;;;;;4977158;28;20126;-70
2022/03/11 13:04:51;;;;;;;;;;;16.50;40.70;;;;;;4977298;28;20014;-70
2022/03/11 13:07:17;;;;;;;;;;;16.70;40.50;;;;;;4977714;28;20022;-70
2022/03/11 13:09:44;;;;;;;;;;;16.70;40.20;;;;;;4978033;28;20018;-69
2022/03/11 13:12:23;;;;;;;;;;;16.90;40.40;;;;;;4977159;28;20027;-69
2022/03/11 13:15:08;;;;;;;;;;;16.80;41.00;;;;;;4976884;28;20018;-69
2022/03/11 13:17:40;;;;;;;;;;;16.70;41.70;;;;;;4977163;28;20395;-67
2022/03/11 13:20:07;;;;;;;;;;;16.60;48.20;;;;;;4977243;28;20082;-67
2022/03/11 13:22:34;;;;;;;;;;;17.10;44.80;;;;;;4977424;28;20031;-66
2022/03/11 13:25:04;;;;;;;;;;;17.30;39.90;;;;;;4976915;28;20029;-66
2022/03/11 13:27:36;;;;;;;;;;;17.40;44.70;;;;;;4977199;28;20382;-67
2022/03/11 13:30:08;;;;;;;;;;;17.50;43.00;;;;;;4977265;28;20019;-67
2022/03/11 13:32:34;;;;;;;;;;;17.90;42.70;;;;;;4976422;28;20398;-68
2022/03/11 13:35:01;;;;;;;;;;;17.90;41.00;;;;;;4977262;28;20015;-67
2022/03/11 13:37:28;;;;;;;;;;;18.10;41.70;;;;;;4976602;28;20018;-67
2022/03/11 13:40:07;;;;;;;;;;;18.10;41.20;;;;;;4977048;28;20497;-67
2022/03/11 13:42:33;;;;;;;;;;;18.30;42.40;;;;;;4976663;28;20030;-68
2022/03/11 13:45:04;;;;;;;;;;;18.60;43.10;;;;;;4977411;28;20011;-69
2022/03/11 13:47:33;;;;;;;;;;;18.70;41.20;;;;;;4977916;28;20026;-68
2022/03/11 13:50:06;;;;;;;;;;;18.50;42.30;;;;;;4976996;28;20011;-68
2022/03/11 13:52:40;;;;;;;;;;;18.10;41.50;;;;;;4979738;28;20030;-68
2022/03/11 13:55:08;;;;;;;;;;;17.60;40.40;;;;;;4981125;28;20006;-68
2022/03/11 13:57:35;;;;;;;;;;;17.60;40.50;;;;;;4979153;28;20015;-67
2022/03/11 14:00:15;;;;;;;;;;;17.90;42.90;;;;;;4979232;28;20015;-68
2022/03/11 14:02:43;;;;;;;;;;;18.10;41.50;;;;;;4979041;28;20505;-67
2022/03/11 14:05:10;;;;;;;;;;;18.20;41.90;;;;;;4977495;28;20017;-68
2022/03/11 14:07:37;;;;;;;;;;;18.20;42.10;;;;;;4976656;28;20117;-68
2022/03/11 14:10:05;;;;;;;;;;;18.20;41.60;;;;;;4976301;28;20014;-68
2022/03/11 14:12:32;;;;;;;;;;;18.10;40.20;;;;;;4976040;28;20495;-68
2022/03/11 14:15:04;;;;;;;;;;;18.10;40.30;;;;;;4976631;28;20015;-68
2022/03/11 14:17:31;;;;;;;;;;;17.70;41.40;;;;;;4979281;28;20007;-67
2022/03/11 14:19:59;;;;;;;;;;;17.80;40.60;;;;;;4976247;28;20371;-68
2022/03/11 14:22:26;;;;;;;;;;;17.90;43.20;;;;;;4976356;28;20027;-67
2022/03/11 14:24:53;;;;;;;;;;;18.00;40.90;;;;;;4976318;28;20466;-68
2022/03/11 14:27:20;;;;;;;;;;;17.90;41.60;;;;;;4984551;28;20049;-68
2022/03/11 14:29:46;;;;;;;;;;;18.00;41.80;;;;;;4979152;28;20011;-67
2022/03/11 14:32:13;;;;;;;;;;;17.90;41.40;;;;;;4976418;28;20038;-67
2022/03/11 14:34:40;;;;;;;;;;;17.80;40.10;;;;;;4977171;28;20006;-67
2022/03/11 14:37:08;;;;;;;;;;;17.80;41.60;;;;;;4975969;28;20010;-68
2022/03/11 14:39:35;;;;;;;;;;;17.80;40.60;;;;;;4976067;28;20374;-68
2022/03/11 14:42:02;;;;;;;;;;;17.90;43.30;;;;;;4976531;28;20027;-67
2022/03/11 14:44:30;;;;;;;;;;;17.90;42.20;;;;;;4977033;28;20019;-67
2022/03/11 14:46:57;;;;;;;;;;;17.90;40.70;;;;;;4977906;28;20011;-67
2022/03/11 14:49:24;;;;;;;;;;;17.90;39.80;;;;;;4980784;28;20015;-67
2022/03/11 14:51:50;;;;;;;;;;;17.70;40.90;;;;;;4981102;28;20027;-68
2022/03/11 14:54:18;;;;;;;;;;;17.70;42.80;;;;;;4980095;28;20389;-67
2022/03/11 14:56:46;;;;;;;;;;;17.70;41.10;;;;;;4980076;28;20035;-69
2022/03/11 14:59:13;;;;;;;;;;;17.70;41.70;;;;;;4980669;28;20015;-69
2022/03/11 15:01:40;;;;;;;;;;;17.60;40.20;;;;;;4979645;28;20401;-69
2022/03/11 15:04:06;;;;;;;;;;;17.60;39.50;;;;;;4979598;28;20010;-70
2022/03/11 15:06:33;;;;;;;;;;;17.60;40.10;;;;;;4980503;28;20058;-68
2022/03/11 15:08:59;;;;;;;;;;;17.30;40.00;;;;;;4980606;28;20034;-69
2022/03/11 15:11:27;;;;;;;;;;;17.30;40.10;;;;;;4980579;28;20034;-70
2022/03/11 15:13:54;;;;;;;;;;;17.30;40.30;;;;;;4979629;28;20018;-70
2022/03/11 15:16:20;;;;;;;;;;;17.20;39.50;;;;;;4979604;28;20011;-69
2022/03/11 15:18:47;;;;;;;;;;;17.00;39.70;;;;;;4979693;28;20018;-70
2022/03/11 15:21:14;;;;;;;;;;;16.90;40.30;;;;;;4979350;28;20031;-69
2022/03/11 15:23:40;;;;;;;;;;;16.90;39.40;;;;;;4979288;28;20015;-70
2022/03/11 15:26:07;;;;;;;;;;;16.80;39.70;;;;;;4979901;28;20348;-70
2022/03/11 15:28:35;;;;;;;;;;;16.70;40.00;;;;;;4980048;28;20027;-69
2022/03/11 15:31:02;;;;;;;;;;;16.60;41.10;;;;;;4979275;28;20034;-69
2022/03/11 15:33:29;;;;;;;;;;;16.60;40.30;;;;;;4979634;28;20010;-70
2022/03/11 15:35:55;;;;;;;;;;;16.40;40.30;;;;;;4980364;28;20011;-69
2022/03/11 15:38:22;;;;;;;;;;;16.30;40.70;;;;;;4979677;28;20011;-70
2022/03/11 15:40:49;;;;;;;;;;;16.10;41.30;;;;;;4979107;28;20027;-70
2022/03/11 15:43:15;;;;;;;;;;;15.90;40.90;;;;;;4979257;28;20053;-70
2022/03/11 15:45:44;;;;;;;;;;;15.80;41.10;;;;;;4978858;28;20018;-70
2022/03/11 15:48:11;;;;;;;;;;;15.70;41.50;;;;;;4978997;28;20033;-69
2022/03/11 15:50:38;;;;;;;;;;;15.60;41.70;;;;;;4978876;28;20039;-70
2022/03/11 15:53:05;;;;;;;;;;;15.50;42.20;;;;;;4979224;28;20037;-69
2022/03/11 15:55:31;;;;;;;;;;;15.30;42.30;;;;;;4979096;28;20011;-70
2022/03/11 15:57:58;;;;;;;;;;;15.20;42.50;;;;;;4978671;28;20034;-69
2022/03/11 16:00:25;;;;;;;;;;;15.20;42.80;;;;;;4978854;28;20010;-70
2022/03/11 16:02:53;;;;;;;;;;;15.00;42.00;;;;;;4978595;28;20438;-69
2022/03/11 16:05:21;;;;;;;;;;;14.90;42.20;;;;;;4978677;28;20402;-70
2022/03/11 16:07:48;;;;;;;;;;;14.70;42.00;;;;;;4980382;28;20492;-69
2022/03/11 16:10:16;;;;;;;;;;;14.50;41.90;;;;;;4978543;28;20010;-69
2022/03/11 16:12:43;;;;;;;;;;;14.40;42.20;;;;;;4979125;28;20011;-69
2022/03/11 16:15:10;;;;;;;;;;;14.20;42.50;;;;;;4978422;28;20458;-69
2022/03/11 16:17:37;;;;;;;;;;;14.10;42.40;;;;;;4978748;28;20011;-69
2022/03/11 16:20:06;;;;;;;;;;;14.10;42.70;;;;;;4978927;28;20021;-69
2022/03/11 16:22:33;;;;;;;;;;;14.10;42.80;;;;;;4977947;28;20528;-70
2022/03/11 16:24:59;;;;;;;;;;;14.00;42.80;;;;;;4978857;28;20070;-69
2022/03/11 16:27:26;;;;;;;;;;;13.90;43.10;;;;;;4978993;28;20018;-69
2022/03/11 16:29:53;;;;;;;;;;;13.90;43.30;;;;;;4984472;28;20018;-69
2022/03/11 16:32:20;;;;;;;;;;;13.90;43.20;;;;;;4988957;28;20070;-69
2022/03/11 16:34:46;;;;;;;;;;;13.80;43.20;;;;;;4987441;28;20018;-68
2022/03/11 16:37:15;;;;;;;;;;;13.70;43.00;;;;;;4987508;28;20010;-68
2022/03/11 16:39:41;;;;;;;;;;;13.60;43.00;;;;;;4988372;28;20010;-69
2022/03/11 16:42:08;;;;;;;;;;;13.50;43.20;;;;;;4981944;28;20375;-70
2022/03/11 16:44:35;;;;;;;;;;;13.40;43.10;;;;;;4978671;28;20015;-70
2022/03/11 16:47:07;;;;;;;;;;;13.20;43.40;;;;;;4978107;28;20011;-71
2022/03/11 16:49:34;;;;;;;;;;;13.10;43.70;;;;;;4977342;28;20023;-71
2022/03/11 16:52:00;;;;;;;;;;;13.00;43.70;;;;;;4977475;28;20027;-67
2022/03/11 16:54:28;;;;;;;;;;;12.90;43.90;;;;;;4977785;28;20018;-67
2022/03/11 16:56:55;;;;;;;;;;;13.00;47.50;;;;;;4977794;28;20018;-67
2022/03/11 16:59:22;;;;;;;;;;;12.90;44.00;;;;;;4977382;28;20018;-67
2022/03/11 17:01:48;;;;;;;;;;;12.90;47.20;;;;;;4976613;28;20030;-67
2022/03/11 17:04:15;;;;;;;;;;;12.80;44.60;;;;;;4977154;28;20011;-67
2022/03/11 17:06:42;;;;;;;;;;;12.60;43.70;;;;;;4977604;28;20454;-66
2022/03/11 17:09:10;;;;;;;;;;;12.60;44.30;;;;;;4977891;28;20034;-67
2022/03/11 17:11:38;;;;;;;;;;;12.50;45.20;;;;;;4977504;28;20027;-66
2022/03/11 17:14:07;;;;;;;;;;;12.40;43.90;;;;;;4977401;28;20363;-71
2022/03/11 17:16:33;;;;;;;;;;;12.40;44.00;;;;;;4977904;28;20463;-68
2022/03/11 17:19:00;;;;;;;;;;;12.30;43.70;;;;;;4978184;28;20011;-69
2022/03/11 17:21:26;;;;;;;;;;;12.20;43.70;;;;;;4977635;28;20414;-70
2022/03/11 17:23:53;;;;;;;;;;;12.10;43.60;;;;;;4978258;28;20484;-70
2022/03/11 17:26:20;;;;;;;;;;;12.00;43.80;;;;;;4977380;28;20010;-70
2022/03/11 17:28:48;;;;;;;;;;;11.90;52.60;;;;;;4979979;28;20029;-71
2022/03/11 17:31:14;;;;;;;;;;;11.90;52.60;;;;;;4983246;28;20033;-70
2022/03/11 17:33:41;;;;;;;;;;;11.90;52.30;;;;;;4983551;28;20018;-67
2022/03/11 17:36:07;;;;;;;;;;;11.80;52.20;;;;;;4985624;28;20458;-69
2022/03/11 17:38:35;;;;;;;;;;;11.80;52.20;;;;;;4978969;28;20018;-69
2022/03/11 17:41:02;;;;;;;;;;;11.70;52.30;;;;;;4977806;28;20099;-67
2022/03/11 17:43:28;;;;;;;;;;;11.70;54.70;;;;;;4977320;28;20378;-69
2022/03/11 17:45:56;;;;;;;;;;;11.70;53.20;;;;;;4982264;28;20450;-69
2022/03/11 17:48:23;;;;;;;;;;;11.60;52.40;;;;;;4983445;28;20135;-66
2022/03/11 17:50:50;;;;;;;;;;;11.60;56.50;;;;;;4976929;28;20498;-67
2022/03/11 17:53:19;;;;;;;;;;;11.60;53.30;;;;;;4976879;28;20385;-68
2022/03/11 17:55:46;;;;;;;;;;;11.40;53.00;;;;;;4977657;28;20022;-68
2022/03/11 17:58:13;;;;;;;;;;;11.30;52.70;;;;;;4977094;28;20017;-67
2022/03/11 18:00:40;;;;;;;;;;;11.20;52.40;;;;;;4976014;28;20030;-67
2022/03/11 18:03:08;;;;;;;;;;;11.10;53.00;;;;;;4976696;28;20007;-67
2022/03/11 18:05:35;;;;;;;;;;;11.10;53.00;;;;;;4976848;28;20014;-67
2022/03/11 18:08:01;;;;;;;;;;;11.00;52.80;;;;;;4976287;28;20062;-67
2022/03/11 18:10:28;;;;;;;;;;;11.00;57.20;;;;;;4976956;28;20343;-67
2022/03/11 18:12:54;;;;;;;;;;;10.90;53.80;;;;;;4977279;28;20011;-68
2022/03/11 18:15:21;;;;;;;;;;;10.90;52.80;;;;;;4977227;28;20474;-67
2022/03/11 18:17:48;;;;;;;;;;;10.80;52.60;;;;;;4978209;28;20018;-67
2022/03/11 18:20:16;;;;;;;;;;;10.80;52.30;;;;;;4977263;28;20378;-67
2022/03/11 18:22:42;;;;;;;;;;;10.80;53.00;;;;;;4981285;28;20077;-67
2022/03/11 18:25:10;;;;;;;;;;;10.70;52.40;;;;;;4981053;28;20481;-67
2022/03/11 18:27:36;;;;;;;;;;;10.70;52.90;;;;;;4981675;28;20015;-67
2022/03/11 18:30:04;;;;;;;;;;;10.70;53.40;;;;;;4981036;28;20077;-67
2022/03/11 18:32:30;;;;;;;;;;;10.60;52.70;;;;;;4981842;28;20387;-67
2022/03/11 18:34:57;;;;;;;;;;;10.50;52.60;;;;;;4993218;28;20023;-68
2022/03/11 18:37:25;;;;;;;;;;;10.40;52.70;;;;;;4998704;28;20011;-67
2022/03/11 18:39:52;;;;;;;;;;;10.40;44.60;;;;;;4989506;28;20355;-67
2022/03/11 18:42:19;;;;;;;;;;;10.40;44.00;;;;;;4982407;28;20027;-67
2022/03/11 18:44:46;;;;;;;;;;;10.30;44.00;;;;;;4982063;28;20014;-67
2022/03/11 18:47:12;;;;;;;;;;;10.30;44.10;;;;;;4980815;28;20018;-69
2022/03/11 18:49:39;;;;;;;;;;;10.20;44.10;;;;;;4981194;28;20132;-67
2022/03/11 18:52:06;;;;;;;;;;;10.10;45.10;;;;;;4985320;28;20038;-67
2022/03/11 18:54:34;;;;;;;;;;;10.10;44.30;;;;;;4981366;28;20074;-70
2022/03/11 18:57:01;;;;;;;;;;;10.00;44.30;;;;;;4980553;28;20105;-67
2022/03/11 18:59:28;;;;;;;;;;;10.00;44.20;;;;;;4980807;28;20034;-67
2022/03/11 19:01:54;;;;;;;;;;;9.90;45.20;;;;;;4989063;28;20031;-72
2022/03/11 19:04:21;;;;;;;;;;;9.80;45.10;;;;;;4994926;28;20011;-68
2022/03/11 19:06:47;;;;;;;;;;;9.80;45.00;;;;;;4996990;28;20022;-68
2022/03/11 19:09:14;;;;;;;;;;;9.80;45.20;;;;;;4996563;28;20027;-68
2022/03/11 19:11:42;;;;;;;;;;;9.70;45.10;;;;;;4995514;28;20027;-68
2022/03/11 19:14:09;;;;;;;;;;;9.70;45.10;;;;;;4994129;28;20011;-68
2022/03/11 19:16:36;;;;;;;;;;;9.60;45.30;;;;;;4989939;28;20011;-67
2022/03/11 19:19:04;;;;;;;;;;;9.60;45.10;;;;;;4990960;28;20007;-67
2022/03/11 19:21:30;;;;;;;;;;;9.50;44.90;;;;;;4989564;28;20027;-69